Time;durP1;ratioP1;P1;durP2;ratioP2;P2;SDS_P1;SDS_P2;PMS_P1;PMS_P2;Temp;Humidity;BMP_temperature;BMP_pressure;BME280_temperature;BME280_humidity;BME280_pressure;Samples;Min_cycle;Max_cycle;Signal;HPM_P1;HPM_P2
2021/08/18 00:00:13;;;;;;;13.80;9.87;;;20.60;62.20;;;;;;4973585;28;20195;-48
2021/08/18 00:02:39;;;;;;;12.97;9.33;;;20.60;62.20;;;;;;4972872;28;20199;-52
2021/08/18 00:05:10;;;;;;;13.90;9.30;;;20.60;62.40;;;;;;4971723;28;20522;-48
2021/08/18 00:07:36;;;;;;;14.67;9.70;;;20.50;62.60;;;;;;4973074;28;20539;-50
2021/08/18 00:10:04;;;;;;;14.33;8.67;;;20.50;62.50;;;;;;4973386;28;20422;-47
2021/08/18 00:12:30;;;;;;;13.87;9.13;;;20.50;62.60;;;;;;4972102;28;20231;-52
2021/08/18 00:14:56;;;;;;;15.50;10.80;;;20.50;62.90;;;;;;4991056;28;20425;-47
2021/08/18 00:17:21;;;;;;;13.40;9.53;;;20.50;63.20;;;;;;4992274;28;20236;-49
2021/08/18 00:19:47;;;;;;;14.40;10.10;;;20.50;63.10;;;;;;4986578;28;20209;-47
2021/08/18 00:22:13;;;;;;;19.70;10.70;;;20.50;62.80;;;;;;4991691;28;20639;-48
2021/08/18 00:24:39;;;;;;;16.93;10.63;;;20.50;63.10;;;;;;4992569;28;20190;-48
2021/08/18 00:27:04;;;;;;;20.10;10.47;;;20.50;62.80;;;;;;4992176;28;20237;-47
2021/08/18 00:29:30;;;;;;;17.10;12.50;;;20.50;62.80;;;;;;4992277;28;20205;-47
2021/08/18 00:31:56;;;;;;;13.30;10.40;;;20.50;62.50;;;;;;4990180;28;20225;-48
2021/08/18 00:34:22;;;;;;;14.80;11.00;;;20.50;62.60;;;;;;4992804;28;20665;-50
2021/08/18 00:36:47;;;;;;;18.40;12.27;;;20.60;62.40;;;;;;4991815;28;20280;-47
2021/08/18 00:39:13;;;;;;;19.93;12.00;;;20.60;62.40;;;;;;4992691;28;20249;-47
2021/08/18 00:41:39;;;;;;;13.40;10.03;;;20.60;62.30;;;;;;4991810;28;21004;-50
2021/08/18 00:44:05;;;;;;;16.30;10.10;;;20.70;62.20;;;;;;4992126;28;20186;-47
2021/08/18 00:46:32;;;;;;;12.30;9.20;;;20.70;62.10;;;;;;4991946;28;20198;-48
2021/08/18 00:48:58;;;;;;;15.83;10.70;;;20.70;62.00;;;;;;4990073;28;20433;-51
2021/08/18 00:51:24;;;;;;;15.60;10.60;;;20.70;62.00;;;;;;4980552;28;20418;-48
2021/08/18 00:53:50;;;;;;;17.30;10.00;;;20.70;62.00;;;;;;4976902;28;20191;-47
2021/08/18 00:56:16;;;;;;;17.33;10.63;;;20.80;62.00;;;;;;4972935;28;20223;-47
2021/08/18 00:58:42;;;;;;;15.37;11.80;;;20.80;62.10;;;;;;4970409;28;20430;-48
2021/08/18 01:01:07;;;;;;;13.20;10.30;;;20.80;62.30;;;;;;4973050;28;20199;-51
2021/08/18 01:03:33;;;;;;;15.93;11.17;;;20.80;62.30;;;;;;4971909;28;20434;-47
2021/08/18 01:06:00;;;;;;;15.00;10.57;;;20.80;62.30;;;;;;4973002;28;20261;-48
2021/08/18 01:08:25;;;;;;;18.10;11.00;;;20.80;62.20;;;;;;4972399;28;20245;-50
2021/08/18 01:10:51;;;;;;;15.73;11.83;;;20.90;62.30;;;;;;4972706;28;20518;-53
2021/08/18 01:13:18;;;;;;;14.40;9.73;;;20.80;62.20;;;;;;4976174;28;20269;-47
2021/08/18 01:15:44;;;;;;;14.33;10.20;;;20.90;62.40;;;;;;4995973;28;20590;-50
2021/08/18 01:18:09;;;;;;;15.57;10.80;;;20.80;62.70;;;;;;4995281;28;20414;-51
2021/08/18 01:20:39;;;;;;;14.93;10.43;;;20.60;63.20;;;;;;4990161;28;20205;-48
2021/08/18 01:23:07;;;;;;;13.97;10.77;;;20.70;63.40;;;;;;4994906;28;20631;-47
2021/08/18 01:25:37;;;;;;;14.50;10.20;;;20.70;63.20;;;;;;4994747;28;20438;-51
2021/08/18 01:28:05;;;;;;;16.43;10.40;;;20.80;63.30;;;;;;4995425;28;20426;-48
2021/08/18 01:30:32;;;;;;;12.37;9.30;;;20.80;63.30;;;;;;4996009;28;20823;-52
2021/08/18 01:33:06;;;;;;;12.80;9.47;;;20.70;63.30;;;;;;4994701;28;20855;-48
2021/08/18 01:35:38;;;;;;;15.77;8.90;;;20.70;63.60;;;;;;4995566;28;20433;-51
2021/08/18 01:38:06;;;;;;;13.90;9.43;;;20.80;63.60;;;;;;4995097;28;20580;-48
2021/08/18 01:40:32;;;;;;;12.70;9.70;;;20.70;63.40;;;;;;4995953;28;20429;-48
2021/08/18 01:42:58;;;;;;;12.33;9.30;;;20.80;63.40;;;;;;4994616;28;20426;-47
2021/08/18 01:45:34;;;;;;;15.37;10.20;;;20.80;63.40;;;;;;4995447;28;20480;-52
2021/08/18 01:48:06;;;;;;;15.00;10.33;;;20.80;63.30;;;;;;4995151;28;20430;-48
2021/08/18 01:50:32;;;;;;;14.37;10.30;;;20.80;63.20;;;;;;4993865;28;20788;-50
2021/08/18 01:52:58;;;;;;;15.07;10.00;;;20.80;63.00;;;;;;4986553;28;20438;-48
2021/08/18 01:55:24;;;;;;;15.30;9.40;;;20.90;62.90;;;;;;4975572;28;20218;-50
2021/08/18 01:57:50;;;;;;;18.17;10.90;;;20.90;62.70;;;;;;4975404;28;20195;-50
2021/08/18 02:00:17;;;;;;;12.00;9.37;;;20.90;62.70;;;;;;4975782;28;20430;-47
2021/08/18 02:02:43;;;;;;;16.53;10.50;;;20.90;62.60;;;;;;4974868;28;20434;-52
2021/08/18 02:05:10;;;;;;;16.00;10.07;;;20.90;62.70;;;;;;4975555;28;20449;-47
2021/08/18 02:07:37;;;;;;;13.30;10.13;;;20.90;62.50;;;;;;4975313;28;20433;-52
2021/08/18 02:10:17;;;;;;;12.50;9.80;;;20.90;62.20;;;;;;4975638;28;20470;-47
2021/08/18 02:12:43;;;;;;;11.67;9.60;;;20.90;62.10;;;;;;4974684;28;20476;-52
2021/08/18 02:15:09;;;;;;;13.73;9.10;;;20.90;62.20;;;;;;4993129;28;20456;-48
2021/08/18 02:17:35;;;;;;;15.27;9.83;;;20.90;62.20;;;;;;4992786;28;20489;-48
2021/08/18 02:20:02;;;;;;;16.73;9.80;;;20.90;62.30;;;;;;4988805;28;20426;-51
2021/08/18 02:22:28;;;;;;;14.80;11.20;;;20.90;62.50;;;;;;4994184;28;20206;-52
2021/08/18 02:24:54;;;;;;;15.73;10.10;;;20.90;62.60;;;;;;4994648;28;20948;-47
2021/08/18 02:27:19;;;;;;;15.80;9.53;;;20.90;62.70;;;;;;4994326;28;20225;-50
2021/08/18 02:29:45;;;;;;;14.40;10.67;;;20.90;62.60;;;;;;4994945;28;20226;-50
2021/08/18 02:32:11;;;;;;;15.13;9.83;;;20.90;62.50;;;;;;4994258;28;20190;-51
2021/08/18 02:34:36;;;;;;;13.10;11.03;;;20.80;62.50;;;;;;4994828;28;20225;-47
2021/08/18 02:37:02;;;;;;;16.70;10.70;;;20.90;62.60;;;;;;4993755;28;20599;-47
2021/08/18 02:39:28;;;;;;;16.23;10.63;;;20.90;62.60;;;;;;4994466;28;20209;-47
2021/08/18 02:41:53;;;;;;;13.03;9.93;;;20.90;62.60;;;;;;4993735;28;20754;-51
2021/08/18 02:44:19;;;;;;;16.97;8.80;;;20.90;62.60;;;;;;4993159;28;20221;-52
2021/08/18 02:46:45;;;;;;;18.53;11.43;;;20.80;62.40;;;;;;4993969;28;20218;-47
2021/08/18 02:49:10;;;;;;;13.50;9.50;;;20.80;62.30;;;;;;4994204;28;20598;-47
2021/08/18 02:51:36;;;;;;;14.80;10.17;;;20.80;61.90;;;;;;4993360;28;20218;-49
2021/08/18 02:54:02;;;;;;;13.53;10.23;;;20.70;61.80;;;;;;4975726;28;20222;-52
2021/08/18 02:56:27;;;;;;;14.60;9.37;;;20.50;61.70;;;;;;4974103;28;20288;-52
2021/08/18 02:58:53;;;;;;;11.47;9.03;;;20.20;63.20;;;;;;4974857;28;20234;-47
2021/08/18 03:01:19;;;;;;;16.87;9.07;;;20.30;62.60;;;;;;4975338;28;20199;-47
2021/08/18 03:03:44;;;;;;;11.00;8.60;;;20.40;62.30;;;;;;4973751;28;20203;-52
2021/08/18 03:06:10;;;;;;;12.17;8.70;;;20.40;62.10;;;;;;4974713;28;20195;-53
2021/08/18 03:08:35;;;;;;;14.10;8.50;;;20.40;61.90;;;;;;4974086;28;20198;-52
2021/08/18 03:11:01;;;;;;;13.47;9.07;;;20.30;62.50;;;;;;4972638;28;20191;-48
2021/08/18 03:13:29;;;;;;;10.30;8.00;;;20.30;61.70;;;;;;4979352;28;20697;-52
2021/08/18 03:15:55;;;;;;;15.03;8.90;;;20.40;61.70;;;;;;4993730;28;20226;-48
2021/08/18 03:18:20;;;;;;;10.80;7.80;;;20.40;61.40;;;;;;4993445;28;20429;-52
2021/08/18 03:20:46;;;;;;;12.33;7.93;;;20.40;61.20;;;;;;4987979;28;20187;-51
2021/08/18 03:23:12;;;;;;;12.87;8.00;;;20.60;60.90;;;;;;4992523;28;20273;-51
2021/08/18 03:25:37;;;;;;;12.03;9.03;;;20.60;60.70;;;;;;4993825;28;20274;-49
2021/08/18 03:28:03;;;;;;;11.97;8.43;;;20.70;60.60;;;;;;4993209;28;20622;-51
2021/08/18 03:30:29;;;;;;;13.00;9.73;;;20.70;60.60;;;;;;4994025;28;20587;-52
2021/08/18 03:32:54;;;;;;;10.03;8.10;;;20.60;60.40;;;;;;4992403;28;20201;-52
2021/08/18 03:35:20;;;;;;;10.30;7.40;;;20.60;60.70;;;;;;4993975;28;20198;-50
2021/08/18 03:37:48;;;;;;;12.53;8.07;;;20.60;60.70;;;;;;4991030;28;20259;-51
2021/08/18 03:40:14;;;;;;;11.47;7.97;;;20.50;60.40;;;;;;4993420;28;20697;-51
2021/08/18 03:42:40;;;;;;;8.13;6.30;;;20.40;60.80;;;;;;4992211;28;20415;-48
2021/08/18 03:45:06;;;;;;;8.83;6.73;;;20.50;60.90;;;;;;4993361;28;20281;-52
2021/08/18 03:47:31;;;;;;;9.83;7.37;;;20.40;60.80;;;;;;4992683;28;20198;-51
2021/08/18 03:49:57;;;;;;;8.87;6.23;;;20.40;60.80;;;;;;4993111;28;20198;-52
2021/08/18 03:52:23;;;;;;;7.83;6.37;;;20.40;60.60;;;;;;4988342;28;20278;-52
2021/08/18 03:54:48;;;;;;;8.10;6.60;;;20.40;60.80;;;;;;4973907;28;20245;-51
2021/08/18 03:57:14;;;;;;;7.90;6.87;;;20.10;61.30;;;;;;4972954;28;20582;-51
2021/08/18 03:59:39;;;;;;;9.07;6.10;;;20.00;61.80;;;;;;4973727;28;20199;-52
2021/08/18 04:02:05;;;;;;;8.67;6.40;;;20.00;62.20;;;;;;4972697;28;20199;-52
2021/08/18 04:04:31;;;;;;;7.83;5.90;;;20.10;62.00;;;;;;4972177;28;20551;-52
2021/08/18 04:06:56;;;;;;;9.30;6.67;;;20.20;62.00;;;;;;4972882;28;20195;-52
2021/08/18 04:09:22;;;;;;;9.17;6.70;;;20.30;61.70;;;;;;4973699;28;20207;-50
2021/08/18 04:11:47;;;;;;;9.97;6.60;;;20.40;61.10;;;;;;4972800;28;20238;-52
2021/08/18 04:14:13;;;;;;;8.70;6.77;;;20.30;61.30;;;;;;4985393;28;20194;-51
2021/08/18 04:16:39;;;;;;;12.57;6.80;;;20.10;61.60;;;;;;4992139;28;20229;-51
2021/08/18 04:19:04;;;;;;;10.37;6.53;;;20.20;61.60;;;;;;4989473;28;20215;-52
2021/08/18 04:21:30;;;;;;;10.73;7.07;;;20.30;61.20;;;;;;4989105;28;20560;-53
2021/08/18 04:23:56;;;;;;;8.13;6.40;;;20.40;61.10;;;;;;4992783;28;20201;-52
2021/08/18 04:26:21;;;;;;;8.33;6.23;;;20.40;60.80;;;;;;4992389;28;20201;-52
2021/08/18 04:28:47;;;;;;;9.67;6.90;;;20.50;60.50;;;;;;4992227;28;20209;-47
2021/08/18 04:31:12;;;;;;;8.27;6.57;;;20.60;60.40;;;;;;4991451;28;20194;-48
2021/08/18 04:33:38;;;;;;;11.47;7.60;;;20.60;60.30;;;;;;4991632;28;20194;-52
2021/08/18 04:36:04;;;;;;;11.00;7.30;;;20.70;60.40;;;;;;4992329;28;20238;-47
2021/08/18 04:38:29;;;;;;;10.10;6.97;;;20.70;60.20;;;;;;4991979;28;20194;-47
2021/08/18 04:40:55;;;;;;;10.60;7.03;;;20.80;60.20;;;;;;4992810;28;20677;-47
2021/08/18 04:43:21;;;;;;;8.77;7.07;;;20.70;60.00;;;;;;4991831;28;20195;-47
2021/08/18 04:45:47;;;;;;;13.00;7.80;;;20.70;60.70;;;;;;4992388;28;20254;-48
2021/08/18 04:48:12;;;;;;;11.33;7.23;;;20.70;60.10;;;;;;4991063;28;20203;-48
2021/08/18 04:50:38;;;;;;;8.27;6.60;;;20.70;60.10;;;;;;4992524;28;20285;-48
2021/08/18 04:53:08;;;;;;;11.50;7.70;;;20.60;60.40;;;;;;4982794;28;20199;-47
2021/08/18 04:55:34;;;;;;;8.70;5.87;;;20.60;60.40;;;;;;4971202;28;20202;-48
2021/08/18 04:58:00;;;;;;;10.37;6.07;;;20.60;60.60;;;;;;4972390;28;20924;-47
2021/08/18 05:00:25;;;;;;;7.53;4.43;;;20.30;60.90;;;;;;4972854;28;20199;-47
2021/08/18 05:02:51;;;;;;;7.07;5.60;;;20.20;61.50;;;;;;4971924;28;20196;-47
2021/08/18 05:05:16;;;;;;;6.10;4.63;;;20.10;61.60;;;;;;4972837;28;20226;-47
2021/08/18 05:07:42;;;;;;;9.77;5.70;;;20.00;62.20;;;;;;4972298;28;20651;-48
2021/08/18 05:10:08;;;;;;;8.30;5.73;;;20.20;62.80;;;;;;4972831;28;20203;-47
2021/08/18 05:12:34;;;;;;;9.10;5.03;;;20.20;61.70;;;;;;4971378;28;20239;-47
2021/08/18 05:14:59;;;;;;;5.90;4.90;;;20.20;61.40;;;;;;4990702;28;20433;-48
2021/08/18 05:17:25;;;;;;;6.40;4.40;;;20.30;61.40;;;;;;4991534;28;20222;-48
2021/08/18 05:19:50;;;;;;;6.83;5.20;;;20.20;61.00;;;;;;4985888;28;20198;-47
2021/08/18 05:22:16;;;;;;;6.80;5.83;;;20.10;61.60;;;;;;4989530;28;20654;-47
2021/08/18 05:24:42;;;;;;;9.63;6.37;;;20.30;61.60;;;;;;4992102;28;20197;-48
2021/08/18 05:27:07;;;;;;;8.50;6.73;;;20.40;61.30;;;;;;4991587;28;20269;-47
2021/08/18 05:29:33;;;;;;;11.93;7.87;;;20.40;61.30;;;;;;4991875;28;20270;-48
2021/08/18 05:31:59;;;;;;;9.37;7.53;;;20.50;61.40;;;;;;4990890;28;20194;-47
2021/08/18 05:34:24;;;;;;;10.63;7.30;;;20.50;61.70;;;;;;4992087;28;20195;-47
2021/08/18 05:36:50;;;;;;;7.30;5.90;;;20.60;62.40;;;;;;4991662;28;20233;-47
2021/08/18 05:39:15;;;;;;;8.47;5.70;;;20.30;62.00;;;;;;4991918;28;20568;-47
2021/08/18 05:41:41;;;;;;;7.90;6.30;;;20.20;62.50;;;;;;4991026;28;20191;-47
2021/08/18 05:44:07;;;;;;;7.60;5.90;;;20.00;63.70;;;;;;4991894;28;20680;-47
2021/08/18 05:46:32;;;;;;;6.70;5.47;;;19.90;64.10;;;;;;4991531;28;20269;-47
2021/08/18 05:48:58;;;;;;;7.30;5.73;;;19.90;64.40;;;;;;4990336;28;20670;-48
2021/08/18 05:51:24;;;;;;;8.80;6.10;;;20.00;64.60;;;;;;4991023;28;20190;-47
2021/08/18 05:53:50;;;;;;;8.40;6.23;;;20.00;64.90;;;;;;4976454;28;20242;-47
2021/08/18 05:56:20;;;;;;;7.90;5.87;;;20.00;64.90;;;;;;4972211;28;20486;-47
2021/08/18 05:58:45;;;;;;;7.90;5.53;;;20.20;64.70;;;;;;4971814;28;20195;-47
2021/08/18 06:01:11;;;;;;;8.53;6.50;;;20.20;64.80;;;;;;4975133;28;20864;-46
2021/08/18 06:03:37;;;;;;;7.57;5.97;;;20.20;64.50;;;;;;4974913;28;20196;-47
2021/08/18 06:06:03;;;;;;;8.37;6.17;;;20.30;64.30;;;;;;4975667;28;20246;-47
2021/08/18 06:08:29;;;;;;;6.87;6.10;;;20.40;64.30;;;;;;4975304;28;20329;-47
2021/08/18 06:10:54;;;;;;;7.60;6.30;;;20.40;64.40;;;;;;4975960;28;20917;-47
2021/08/18 06:13:20;;;;;;;10.30;7.80;;;20.50;64.60;;;;;;4979384;28;20690;-47
2021/08/18 06:15:45;;;;;;;9.90;7.37;;;20.50;65.30;;;;;;4993483;28;20576;-47
2021/08/18 06:18:11;;;;;;;10.73;7.53;;;20.30;65.90;;;;;;4994468;28;20686;-48
2021/08/18 06:20:37;;;;;;;9.27;6.00;;;20.00;66.30;;;;;;4988895;28;20217;-47
2021/08/18 06:23:02;;;;;;;13.93;8.43;;;20.10;67.00;;;;;;4993849;28;20218;-47
2021/08/18 06:25:28;;;;;;;9.40;7.03;;;20.10;66.70;;;;;;4994886;28;20198;-47
2021/08/18 06:27:54;;;;;;;11.47;7.37;;;20.20;66.30;;;;;;4994233;28;20205;-47
2021/08/18 06:30:20;;;;;;;7.20;5.97;;;20.20;66.40;;;;;;4995044;28;20334;-47
2021/08/18 06:32:46;;;;;;;7.20;6.40;;;20.20;66.00;;;;;;4993691;28;20989;-47
2021/08/18 06:35:12;;;;;;;9.00;6.80;;;20.30;65.50;;;;;;4994911;28;20422;-47
2021/08/18 06:37:39;;;;;;;8.73;7.33;;;20.20;65.60;;;;;;4994012;28;20226;-47
2021/08/18 06:40:06;;;;;;;8.40;6.90;;;20.30;65.50;;;;;;4994618;28;20205;-48
2021/08/18 06:42:31;;;;;;;9.23;6.23;;;20.20;66.00;;;;;;4992192;28;20794;-47
2021/08/18 06:44:57;;;;;;;9.07;6.40;;;20.10;67.00;;;;;;4994782;28;20432;-47
2021/08/18 06:47:23;;;;;;;7.90;7.07;;;20.10;66.30;;;;;;4993847;28;20191;-48
2021/08/18 06:49:48;;;;;;;9.10;6.80;;;20.10;66.20;;;;;;4994366;28;20198;-49
2021/08/18 06:52:14;;;;;;;11.80;7.20;;;20.10;66.20;;;;;;4990326;28;20272;-51
2021/08/18 06:54:39;;;;;;;8.67;7.20;;;20.20;66.20;;;;;;4974759;28;20200;-48
2021/08/18 06:57:05;;;;;;;8.30;6.50;;;20.20;66.20;;;;;;4974348;28;20238;-47
2021/08/18 06:59:31;;;;;;;8.50;6.10;;;20.20;66.10;;;;;;4974805;28;20202;-49
2021/08/18 07:01:57;;;;;;;6.93;5.50;;;20.20;65.80;;;;;;4973726;28;20631;-50
2021/08/18 07:04:22;;;;;;;7.80;6.80;;;20.30;65.90;;;;;;4974950;28;20198;-47
2021/08/18 07:06:48;;;;;;;8.90;6.70;;;20.50;65.80;;;;;;4974329;28;20722;-47
2021/08/18 07:09:13;;;;;;;7.30;5.50;;;20.70;65.80;;;;;;4973202;28;20197;-48
2021/08/18 07:11:39;;;;;;;8.37;6.40;;;20.70;65.10;;;;;;4972390;28;20246;-49
2021/08/18 07:14:05;;;;;;;7.50;5.00;;;20.70;64.90;;;;;;4985443;28;20197;-48
2021/08/18 07:16:34;;;;;;;6.10;5.40;;;20.50;64.80;;;;;;4993260;28;20947;-48
2021/08/18 07:19:00;;;;;;;7.87;5.50;;;20.40;64.50;;;;;;4991221;28;21016;-47
2021/08/18 07:21:26;;;;;;;6.43;5.20;;;20.60;64.40;;;;;;4989453;28;20426;-48
2021/08/18 07:23:53;;;;;;;6.40;5.73;;;20.80;64.30;;;;;;4993871;28;20457;-48
2021/08/18 07:26:25;;;;;;;6.10;5.43;;;20.80;63.60;;;;;;4993581;28;20433;-47
2021/08/18 07:28:51;;;;;;;6.63;5.33;;;21.00;63.60;;;;;;4993781;28;20438;-47
2021/08/18 07:31:17;;;;;;;7.03;5.17;;;21.00;63.00;;;;;;4993229;28;20433;-47
2021/08/18 07:33:43;;;;;;;8.03;5.70;;;21.10;62.60;;;;;;4993395;28;20422;-49
2021/08/18 07:36:08;;;;;;;6.80;5.70;;;21.20;62.40;;;;;;4991928;28;20230;-49
2021/08/18 07:38:34;;;;;;;7.30;5.20;;;21.30;62.30;;;;;;4993114;28;20729;-49
2021/08/18 07:41:00;;;;;;;6.43;5.60;;;21.40;61.80;;;;;;4993707;28;20202;-51
2021/08/18 07:43:25;;;;;;;6.33;4.83;;;21.10;61.60;;;;;;4992585;28;20238;-47
2021/08/18 07:45:51;;;;;;;6.50;4.30;;;21.10;62.10;;;;;;4993538;28;20326;-48
2021/08/18 07:48:17;;;;;;;7.17;4.93;;;21.10;63.00;;;;;;4992718;28;20207;-47
2021/08/18 07:50:42;;;;;;;7.20;5.53;;;21.20;61.70;;;;;;4993252;28;20198;-52
2021/08/18 07:53:08;;;;;;;5.53;4.40;;;21.40;61.90;;;;;;4981918;28;20210;-49
2021/08/18 07:55:34;;;;;;;7.03;4.40;;;21.30;60.90;;;;;;4973508;28;20191;-47
2021/08/18 07:57:59;;;;;;;5.43;4.47;;;21.20;62.20;;;;;;4973195;28;20659;-47
2021/08/18 08:00:25;;;;;;;6.40;5.13;;;21.30;62.00;;;;;;4973861;28;20767;-52
2021/08/18 08:02:50;;;;;;;6.40;4.67;;;21.40;61.90;;;;;;4971246;28;20202;-51
2021/08/18 08:05:17;;;;;;;5.23;4.30;;;21.60;61.40;;;;;;4973437;28;20562;-48
2021/08/18 08:07:44;;;;;;;6.00;4.03;;;21.70;61.10;;;;;;4973290;28;20254;-47
2021/08/18 08:10:11;;;;;;;7.40;4.10;;;21.70;61.00;;;;;;4973552;28;20477;-52
2021/08/18 08:12:37;;;;;;;4.63;3.90;;;21.70;60.30;;;;;;4972565;28;20474;-50
2021/08/18 08:15:05;;;;;;;5.77;4.37;;;21.60;60.20;;;;;;4991803;28;20430;-51
2021/08/18 08:17:31;;;;;;;5.23;4.50;;;21.80;60.60;;;;;;4992249;28;20518;-50
2021/08/18 08:19:56;;;;;;;5.13;4.10;;;21.90;60.00;;;;;;4987088;28;20503;-50
2021/08/18 08:22:22;;;;;;;3.20;2.90;;;21.80;59.90;;;;;;4991559;28;20202;-50
2021/08/18 08:24:48;;;;;;;3.13;2.83;;;21.80;59.30;;;;;;4992914;28;20661;-47
2021/08/18 08:27:14;;;;;;;2.90;2.60;;;21.80;59.50;;;;;;4990955;28;20496;-46
2021/08/18 08:29:39;;;;;;;2.97;2.70;;;21.90;59.10;;;;;;4992339;28;20195;-51
2021/08/18 08:32:06;;;;;;;3.03;2.40;;;21.80;59.00;;;;;;4991476;28;20226;-50
2021/08/18 08:34:31;;;;;;;4.00;2.90;;;21.60;59.30;;;;;;4992519;28;20202;-47
2021/08/18 08:36:57;;;;;;;3.67;3.27;;;21.60;59.90;;;;;;4990754;28;20485;-50
2021/08/18 08:39:23;;;;;;;4.00;2.97;;;21.80;60.10;;;;;;4992539;28;20199;-50
2021/08/18 08:41:49;;;;;;;2.50;2.30;;;22.00;59.30;;;;;;4991662;28;20433;-51
2021/08/18 08:44:20;;;;;;;4.63;3.00;;;22.20;58.90;;;;;;4992396;28;20248;-47
2021/08/18 08:46:51;;;;;;;2.60;2.33;;;22.30;58.70;;;;;;4991770;28;20222;-51
2021/08/18 08:49:17;;;;;;;2.67;2.10;;;22.40;58.40;;;;;;4992124;28;20508;-47
2021/08/18 08:51:48;;;;;;;2.37;2.00;;;22.40;58.60;;;;;;4991490;28;20568;-50
2021/08/18 08:54:15;;;;;;;2.03;1.80;;;22.40;58.40;;;;;;4971493;28;20419;-48
2021/08/18 08:56:41;;;;;;;2.00;1.80;;;22.30;58.50;;;;;;4972622;28;20871;-49
2021/08/18 08:59:07;;;;;;;2.13;1.93;;;22.30;58.60;;;;;;4972755;28;20918;-51
2021/08/18 09:02:02;;;;;;;1.90;1.70;;;22.30;58.60;;;;;;4971966;28;20427;-46
2021/08/18 09:04:38;;;;;;;1.93;1.77;;;22.30;58.90;;;;;;4972865;28;20221;-48
2021/08/18 09:07:05;;;;;;;1.97;1.70;;;22.40;59.20;;;;;;4971033;28;20449;-51
2021/08/18 09:09:31;;;;;;;2.03;1.53;;;22.50;59.00;;;;;;4972459;28;20430;-47
2021/08/18 09:12:14;;;;;;;2.40;1.77;;;22.60;58.80;;;;;;4971588;28;20470;-51
2021/08/18 09:14:41;;;;;;;2.17;1.40;;;22.70;58.60;;;;;;4988070;28;20459;-51
2021/08/18 09:17:29;;;;;;;2.63;1.50;;;22.80;58.30;;;;;;4991724;28;20478;-49
2021/08/18 09:20:01;;;;;;;0.80;0.80;;;22.90;58.10;;;;;;4985858;28;20482;-51
2021/08/18 09:22:27;;;;;;;2.27;1.10;;;22.90;58.10;;;;;;4990375;28;20521;-49
2021/08/18 09:25:22;;;;;;;1.10;1.00;;;22.90;58.30;;;;;;4991631;28;20434;-48
2021/08/18 09:27:56;;;;;;;1.23;1.07;;;22.90;57.80;;;;;;4987403;28;20445;-48
2021/08/18 09:30:33;;;;;;;1.00;0.90;;;22.90;57.60;;;;;;4992082;28;20425;-51
2021/08/18 09:33:10;;;;;;;0.70;0.70;;;23.00;57.80;;;;;;4990890;28;20865;-52
2021/08/18 09:35:37;;;;;;;1.10;0.77;;;23.00;57.60;;;;;;4994066;28;20480;-47
2021/08/18 09:38:06;;;;;;;1.70;0.60;;;23.00;57.60;;;;;;4995289;28;20845;-51
2021/08/18 09:40:36;;;;;;;1.33;0.70;;;22.80;57.50;;;;;;4995640;28;20917;-49
2021/08/18 09:43:14;;;;;;;0.70;0.70;;;22.80;58.10;;;;;;4994899;28;20447;-48
2021/08/18 09:45:45;;;;;;;0.70;0.70;;;22.80;58.00;;;;;;4995546;28;20465;-48
2021/08/18 09:48:14;;;;;;;2.00;0.87;;;22.70;57.90;;;;;;4993529;28;20999;-51
2021/08/18 09:50:49;;;;;;;0.60;0.60;;;22.70;58.20;;;;;;4995482;28;21015;-50
2021/08/18 09:53:17;;;;;;;2.93;1.10;;;22.80;58.00;;;;;;4983392;28;20433;-51
2021/08/18 09:55:54;;;;;;;0.80;0.80;;;22.80;58.20;;;;;;4975717;28;20435;-51
2021/08/18 09:58:20;;;;;;;1.10;0.80;;;22.90;58.20;;;;;;4975606;28;20437;-50
2021/08/18 10:00:46;;;;;;;1.20;0.90;;;22.90;58.00;;;;;;4975913;28;20828;-50
2021/08/18 10:03:12;;;;;;;1.90;0.80;;;22.70;58.20;;;;;;4975098;28;20619;-50
2021/08/18 10:05:39;;;;;;;0.90;0.90;;;22.80;58.00;;;;;;4982497;28;20936;-47
2021/08/18 10:08:05;;;;;;;0.70;0.70;;;22.90;58.00;;;;;;4994782;28;21076;-52
2021/08/18 10:10:31;;;;;;;0.70;0.70;;;22.90;57.60;;;;;;4995229;28;20434;-46
2021/08/18 10:12:59;;;;;;;0.70;0.70;;;23.00;57.50;;;;;;4993123;28;20476;-51
2021/08/18 10:15:25;;;;;;;0.80;0.70;;;23.00;57.30;;;;;;4994184;28;20441;-47
2021/08/18 10:17:51;;;;;;;0.93;0.90;;;23.00;57.30;;;;;;4994681;28;20493;-51
2021/08/18 10:20:22;;;;;;;1.17;0.90;;;23.20;57.50;;;;;;4988996;28;20612;-49
2021/08/18 10:23:02;;;;;;;1.23;0.90;;;23.30;57.30;;;;;;4994139;28;20430;-48
2021/08/18 10:25:35;;;;;;;0.80;0.80;;;23.40;57.00;;;;;;4994905;28;20442;-47
2021/08/18 10:28:08;;;;;;;1.10;1.00;;;23.60;57.10;;;;;;4994406;28;20434;-52
2021/08/18 10:30:48;;;;;;;0.90;0.90;;;23.90;57.60;;;;;;4994951;28;20433;-53
2021/08/18 10:33:50;;;;;;;0.90;0.80;;;24.00;56.50;;;;;;4994252;28;20421;-51
2021/08/18 10:36:41;;;;;;;1.53;0.90;;;24.00;55.60;;;;;;4994388;28;20578;-51
2021/08/18 10:39:18;;;;;;;1.00;1.00;;;24.00;55.60;;;;;;4994657;28;20430;-52
2021/08/18 10:41:57;;;;;;;1.30;1.03;;;23.90;55.40;;;;;;4992541;28;20429;-51
2021/08/18 10:44:42;;;;;;;1.10;1.10;;;23.90;55.10;;;;;;4994465;28;20453;-52
2021/08/18 10:47:21;;;;;;;1.50;1.40;;;23.90;55.10;;;;;;4992313;28;20484;-51
2021/08/18 10:49:51;;;;;;;1.67;1.20;;;23.90;55.40;;;;;;4994444;28;20422;-51
2021/08/18 10:52:29;;;;;;;1.50;1.40;;;23.90;55.30;;;;;;4990769;28;20531;-51
2021/08/18 10:55:06;;;;;;;1.40;1.30;;;23.90;55.20;;;;;;4973649;28;20446;-52
2021/08/18 10:57:47;;;;;;;1.50;1.40;;;24.10;55.60;;;;;;4974027;28;20610;-51
2021/08/18 11:00:21;;;;;;;1.07;1.07;;;24.10;55.30;;;;;;4974717;28;20939;-50
2021/08/18 11:03:03;;;;;;;1.20;1.10;;;24.10;55.40;;;;;;4974065;28;20443;-51
2021/08/18 11:05:37;;;;;;;1.40;1.30;;;24.10;54.80;;;;;;4974631;28;20812;-50
2021/08/18 11:08:20;;;;;;;1.30;1.20;;;24.00;54.10;;;;;;4972329;28;20430;-51
2021/08/18 11:10:52;;;;;;;1.80;1.60;;;24.10;53.90;;;;;;4981903;28;20488;-52
2021/08/18 11:13:33;;;;;;;2.00;1.07;;;24.10;54.30;;;;;;4993524;28;20508;-52
2021/08/18 11:16:05;;;;;;;1.50;1.40;;;24.10;53.60;;;;;;4993699;28;20524;-52
2021/08/18 11:18:31;;;;;;;1.70;1.60;;;24.20;53.30;;;;;;4993440;28;20830;-51
2021/08/18 11:20:57;;;;;;;1.30;1.20;;;24.30;53.30;;;;;;4987745;28;20437;-52
2021/08/18 11:23:24;;;;;;;1.63;1.53;;;24.30;54.60;;;;;;4993510;28;20803;-52
2021/08/18 11:25:50;;;;;;;1.30;1.20;;;24.40;54.50;;;;;;4993887;28;20194;-50
2021/08/18 11:28:23;;;;;;;1.33;1.23;;;24.60;53.40;;;;;;4993106;28;20957;-52
2021/08/18 11:31:04;;;;;;;1.57;1.47;;;24.80;52.60;;;;;;4993266;28;20190;-52
2021/08/18 11:33:31;;;;;;;1.50;1.40;;;24.70;52.70;;;;;;4991338;28;21005;-47
2021/08/18 11:36:00;;;;;;;1.53;1.43;;;24.70;52.80;;;;;;4993246;28;20466;-47
2021/08/18 11:38:26;;;;;;;1.53;1.43;;;24.70;52.80;;;;;;4993060;28;20426;-47
2021/08/18 11:40:53;;;;;;;1.30;1.20;;;24.70;52.60;;;;;;4991778;28;20992;-50
2021/08/18 11:43:39;;;;;;;1.83;1.73;;;24.80;53.00;;;;;;4993002;28;20464;-51
2021/08/18 11:46:06;;;;;;;1.80;1.70;;;24.80;52.50;;;;;;4993259;28;20434;-47
2021/08/18 11:48:33;;;;;;;1.40;1.30;;;24.80;52.40;;;;;;4992700;28;20480;-47
2021/08/18 11:50:59;;;;;;;1.80;1.50;;;24.90;52.40;;;;;;4992818;28;20943;-51
2021/08/18 11:53:25;;;;;;;1.50;1.40;;;24.80;52.50;;;;;;4979860;28;20769;-47
2021/08/18 11:56:03;;;;;;;1.60;1.50;;;24.70;52.40;;;;;;4973707;28;20431;-48
2021/08/18 11:58:35;;;;;;;2.30;1.80;;;24.80;52.10;;;;;;4972676;28;20804;-47
2021/08/18 12:01:03;;;;;;;1.80;1.70;;;24.90;52.40;;;;;;4971738;28;20439;-46
2021/08/18 12:03:29;;;;;;;1.80;1.70;;;24.90;52.70;;;;;;4973067;28;20458;-47
2021/08/18 12:06:12;;;;;;;1.77;1.67;;;24.90;52.60;;;;;;4973497;28;20596;-48
2021/08/18 12:08:42;;;;;;;1.50;1.40;;;24.90;52.90;;;;;;4972945;28;20894;-47
2021/08/18 12:11:10;;;;;;;1.90;1.60;;;24.90;53.40;;;;;;4973149;28;20491;-46
2021/08/18 12:13:45;;;;;;;1.70;1.60;;;24.80;53.10;;;;;;4979997;28;20462;-48
2021/08/18 12:16:31;;;;;;;2.63;1.57;;;24.90;53.00;;;;;;4992647;28;20488;-47
2021/08/18 12:19:17;;;;;;;2.90;1.80;;;25.00;53.50;;;;;;4990593;28;20434;-47
2021/08/18 12:21:43;;;;;;;1.73;1.63;;;25.30;52.30;;;;;;4991042;28;20445;-47
2021/08/18 12:24:12;;;;;;;1.70;1.57;;;25.40;52.10;;;;;;4992774;28;20446;-47
2021/08/18 12:26:42;;;;;;;1.87;1.40;;;25.40;52.60;;;;;;4990661;28;20437;-47
2021/08/18 12:29:14;;;;;;;1.67;1.57;;;25.40;51.90;;;;;;4991411;28;20488;-47
2021/08/18 12:31:58;;;;;;;2.97;1.43;;;25.50;51.90;;;;;;4991919;28;20769;-47
2021/08/18 12:34:47;;;;;;;1.73;1.63;;;25.60;52.40;;;;;;4992524;28;20429;-48
2021/08/18 12:37:30;;;;;;;1.70;1.60;;;25.80;51.90;;;;;;4991907;28;20500;-48
2021/08/18 12:40:19;;;;;;;1.40;1.30;;;25.90;51.50;;;;;;4992484;28;20457;-47
2021/08/18 12:42:57;;;;;;;1.40;1.30;;;25.90;50.50;;;;;;4991582;28;20430;-46
2021/08/18 12:45:34;;;;;;;1.40;1.30;;;25.90;50.20;;;;;;4992334;28;20840;-48
2021/08/18 12:48:00;;;;;;;1.40;1.30;;;25.80;50.70;;;;;;4991787;28;20503;-47